Fallon, NV

5:08 PM PST on February 05, 2016 (GMT -0800)
Hwy. 50 | | Change Station
CLOSE
Current Station
Personal Weather Station
Location: Fallon, NV
Elevation: 4002 ft
Nearby Weather Stations

Elev 4002 ft 39.49 °N, 118.87 °W | Updated 1 second ago

Mostly Cloudy
Mostly Cloudy
38.3 °F
Feels Like 38 °F
N
0.0
Wind Variable Wind from SW
Gusts 0.0 mph

Today
High -- | Low -- °F
--% Chance of Precip.
Yesterday
High -- | Low -- °F
Precip. -- in
Pressure 30.33 in
Visibility 10.0 miles
Clouds Few 3000 ft
Scattered Clouds 15000 ft
Mostly Cloudy 25000 ft
Windchill 38 °F
Dew Point 29 °F
Humidity 70%
Rainfall 0.00 in
Snow Depth Not available.
6:59 AM 5:20 PM
Waning Crescent, 8% visible
METAR KNFL 060056Z 23004KT 10SM FEW030 SCT150 BKN250 03/M02 A3047 RMK AO2 SLP270 T00281022
Pressure 30.33 in
Visibility 10.0 miles
Clouds Few 3000 ft
Scattered Clouds 15000 ft
Mostly Cloudy 25000 ft
Windchill 38 °F
Dew Point 29 °F
Humidity 70%
Rainfall 0.00 in
Snow Depth Not available.
6:59 AM 5:20 PM
Waning Crescent, 8% visible
METAR KNFL 060056Z 23004KT 10SM FEW030 SCT150 BKN250 03/M02 A3047 RMK AO2 SLP270 T00281022

10-Day Weather Forecast

Almanac

Astronomy

Feb. 05, 2016 Rise Set
Actual Time
Civil Twilight
Nautical Twilight
Astronomical Twilight
Moon
Length of Visible Light
Length of Day
Tomorrow will be .
, % of the Moon is Illuminated

Today's Extremes

State Highs State Lows

Community

WunderPhotos

Upload Photos

1,890,902 photos uploaded!

WunderBlog® & News

Nearby

Air Quality

  Air Quality AQ Index Pollutant
Not available.

Snow Depth

Station Depth Elevation

Earthquake Activity

City Distance Mag. Time & Date
Minimum magnitude displayed is 2.5.

Coastal Water Temperatures

Place Temperature

Stations

Nearby Weather Stations

Station Location Temp. Windchill Dew Point Humidity Wind Precip. Elev Updated Type
                   

Watches & Warnings

There are currently no watches in effect.